Time;durP1;ratioP1;P1;durP2;ratioP2;P2;SDS_P1;SDS_P2;PMS_P1;PMS_P2;Temp;Humidity;BMP_temperature;BMP_pressure;BME280_temperature;BME280_humidity;BME280_pressure;Samples;Min_cycle;Max_cycle;Signal;HPM_P1;HPM_P2
2023/03/31 00:00:22;;;;;;;2.03;1.83;;;;;;;5.98;100.00;95606.28;5058795;28;20447;-79
2023/03/31 00:02:52;;;;;;;2.40;1.60;;;;;;;5.97;100.00;95603.97;5076951;28;20527;-78
2023/03/31 00:05:20;;;;;;;2.30;1.10;;;;;;;6.40;100.00;95677.31;5050891;28;20824;-77
2023/03/31 00:07:49;;;;;;;4.90;3.10;;;;;;;6.28;100.00;95653.56;5063395;28;20502;-77
2023/03/31 00:10:18;;;;;;;4.53;2.57;;;;;;;6.16;100.00;95643.75;5071621;28;20432;-77
2023/03/31 00:12:45;;;;;;;8.60;3.47;;;;;;;6.33;100.00;95669.94;5063017;28;20503;-77
2023/03/31 00:15:12;;;;;;;8.93;3.63;;;;;;;6.28;100.00;95667.50;5072025;28;20435;-77
2023/03/31 00:17:39;;;;;;;11.27;6.40;;;;;;;6.30;100.00;95672.41;5061441;28;20433;-78
2023/03/31 00:20:10;;;;;;;7.80;4.03;;;;;;;5.80;100.00;95644.88;5067397;28;20531;-77
2023/03/31 00:22:41;;;;;;;6.03;2.73;;;;;;;5.89;100.00;95652.75;5071836;28;20871;-77
2023/03/31 00:25:12;;;;;;;7.40;3.77;;;;;;;6.02;100.00;95669.41;5050270;28;20475;-77
2023/03/31 00:27:43;;;;;;;7.97;3.73;;;;;;;5.97;100.00;95664.31;5072815;28;20837;-77
2023/03/31 00:30:12;;;;;;;5.20;3.37;;;;;;;5.96;100.00;95665.41;5048933;28;20482;-76
2023/03/31 00:32:39;;;;;;;7.80;3.60;;;;;;;5.94;100.00;95660.47;5071711;28;20495;-77
2023/03/31 00:35:07;;;;;;;4.00;2.50;;;;;;;5.88;100.00;95656.47;5042987;28;20451;-77
2023/03/31 00:37:34;;;;;;;5.37;2.80;;;;;;;5.79;100.00;95659.09;5071717;28;20435;-77
2023/03/31 00:40:08;;;;;;;2.97;2.53;;;;;;;5.69;100.00;95648.91;5047485;28;20531;-76
2023/03/31 00:42:43;;;;;;;3.43;1.60;;;;;;;5.73;100.00;95649.81;5067129;28;20484;-77
2023/03/31 00:45:13;;;;;;;1.43;1.13;;;;;;;5.68;100.00;95652.63;5062309;28;20440;-77
2023/03/31 00:48:10;;;;;;;2.03;1.93;;;;;;;5.85;100.00;95633.44;5056610;28;20432;-77
2023/03/31 00:50:47;;;;;;;3.37;1.80;;;;;;;5.92;100.00;95642.44;5055911;28;20443;-77
2023/03/31 00:53:17;;;;;;;6.00;4.30;;;;;;;5.34;100.00;95578.19;5061769;28;20432;-77
2023/03/31 00:55:50;;;;;;;4.07;3.67;;;;;;;5.73;100.00;95631.47;5067167;28;20446;-77
2023/03/31 00:58:19;;;;;;;5.90;3.20;;;;;;;5.98;100.00;95618.63;5047055;28;20436;-78
2023/03/31 01:00:49;;;;;;;3.17;2.90;;;;;;;6.17;100.00;95637.41;5044194;28;20448;-77
2023/03/31 01:03:17;;;;;;;4.90;3.23;;;;;;;5.76;100.00;95596.78;5085239;28;20481;-76
2023/03/31 01:06:04;;;;;;;3.80;2.50;;;;;;;5.98;100.00;95613.38;5057897;28;20434;-76
2023/03/31 01:08:35;;;;;;;6.37;2.43;;;;;;;6.02;100.00;95611.69;5056915;28;20435;-77
2023/03/31 01:11:08;;;;;;;3.73;2.40;;;;;;;5.83;100.00;95583.16;5062188;28;20468;-76
2023/03/31 01:13:37;;;;;;;8.93;2.43;;;;;;;5.56;100.00;95552.84;5067182;28;20467;-76
2023/03/31 01:16:08;;;;;;;2.93;2.60;;;;;;;5.56;100.00;95579.84;5063268;28;20456;-76
2023/03/31 01:18:35;;;;;;;3.33;2.13;;;;;;;5.44;100.00;95568.44;5040187;28;20531;-76
2023/03/31 01:21:08;;;;;;;3.40;2.70;;;;;;;5.56;100.00;95579.06;5047837;28;20466;-76
2023/03/31 01:24:02;;;;;;;2.80;2.60;;;;;;;5.56;100.00;95574.59;5078318;28;20436;-77
2023/03/31 01:26:38;;;;;;;3.50;3.03;;;;;;;5.45;100.00;95541.94;5070609;28;20921;-76
2023/03/31 01:29:35;;;;;;;3.87;3.23;;;;;;;5.61;100.00;95557.94;5050227;28;20518;-77
2023/03/31 01:32:30;;;;;;;6.47;2.57;;;;;;;5.58;100.00;95540.97;5053049;28;20475;-76
2023/03/31 01:34:59;;;;;;;4.90;2.47;;;;;;;5.77;100.00;95560.81;5049855;28;20523;-77
2023/03/31 01:37:57;;;;;;;4.70;2.90;;;;;;;5.67;100.00;95543.56;5068801;28;20435;-78
2023/03/31 01:40:32;;;;;;;3.67;2.90;;;;;;;5.63;100.00;95530.31;5066517;28;20460;-76
2023/03/31 01:43:10;;;;;;;3.67;2.67;;;;;;;5.77;100.00;95547.72;5053682;28;20883;-77
2023/03/31 01:45:53;;;;;;;9.00;3.10;;;;;;;5.90;100.00;95554.63;5064619;28;20846;-76
2023/03/31 01:48:35;;;;;;;3.30;3.00;;;;;;;5.65;100.00;95519.53;5064792;28;20432;-77
2023/03/31 01:51:09;;;;;;;3.80;2.30;;;;;;;5.84;100.00;95533.00;5070043;28;20510;-77
2023/03/31 01:53:41;;;;;;;7.27;4.77;;;;;;;5.76;100.00;95525.19;5051188;28;20862;-77
2023/03/31 01:56:17;;;;;;;10.37;5.53;;;;;;;5.88;100.00;95536.56;5061981;28;20436;-77
2023/03/31 01:58:56;;;;;;;11.23;7.03;;;;;;;5.73;100.00;95497.72;5043301;28;20526;-77
2023/03/31 02:01:34;;;;;;;14.83;6.50;;;;;;;5.75;100.00;95492.97;5064947;28;20539;-76
2023/03/31 02:04:12;;;;;;;8.13;4.00;;;;;;;5.94;100.00;95510.94;5047404;28;20420;-77
2023/03/31 02:06:45;;;;;;;4.53;2.60;;;;;;;5.80;100.00;95484.91;5055440;28;20472;-79
2023/03/31 02:09:19;;;;;;;5.23;3.27;;;;;;;5.95;100.00;95499.34;5044419;28;20433;-79
2023/03/31 02:11:47;;;;;;;2.97;2.70;;;;;;;5.81;100.00;95485.66;5043001;28;20467;-77
2023/03/31 02:14:21;;;;;;;4.87;2.70;;;;;;;5.90;100.00;95502.94;5065994;28;20436;-76
2023/03/31 02:16:57;;;;;;;2.67;2.20;;;;;;;5.54;100.00;95456.16;5065396;28;21025;-77
2023/03/31 02:19:30;;;;;;;1.90;1.67;;;;;;;5.55;100.00;95447.22;5067044;28;20408;-77
2023/03/31 02:21:58;;;;;;;6.40;2.60;;;;;;;5.82;100.00;95481.97;5043257;28;20482;-77
2023/03/31 02:24:26;;;;;;;4.20;2.10;;;;;;;5.81;100.00;95473.31;5059665;28;20428;-76
2023/03/31 02:27:08;;;;;;;3.47;1.90;;;;;;;5.48;100.00;95433.84;5082280;28;20774;-77
2023/03/31 02:29:35;;;;;;;4.20;2.40;;;;;;;5.65;100.00;95456.59;5059425;28;20547;-77
2023/03/31 02:32:08;;;;;;;3.27;2.03;;;;;;;5.73;100.00;95476.75;5063184;28;20496;-76
2023/03/31 02:34:35;;;;;;;2.47;1.80;;;;;;;5.70;100.00;95477.38;5042873;28;20533;-77
2023/03/31 02:37:02;;;;;;;20.87;7.73;;;;;;;5.51;100.00;95441.06;5044377;28;20445;-77
2023/03/31 02:39:33;;;;;;;5.60;3.50;;;;;;;5.38;100.00;95418.47;5068078;28;20446;-76
2023/03/31 02:42:06;;;;;;;5.10;3.70;;;;;;;5.53;100.00;95443.38;5065640;28;20973;-77
2023/03/31 02:44:38;;;;;;;7.87;3.23;;;;;;;5.50;100.00;95436.91;5046754;28;20493;-77
2023/03/31 02:47:11;;;;;;;7.10;3.60;;;;;;;5.29;100.00;95413.25;5061438;28;20540;-77
2023/03/31 02:49:42;;;;;;;6.73;4.30;;;;;;;5.34;100.00;95414.91;5047426;28;20433;-76
2023/03/31 02:52:32;;;;;;;5.80;4.17;;;;;;;5.49;100.00;95434.63;5064118;28;20467;-77
2023/03/31 02:55:01;;;;;;;4.90;3.80;;;;;;;5.48;100.00;95438.31;5039255;28;20436;-77
2023/03/31 02:58:03;;;;;;;4.17;2.67;;;;;;;5.44;100.00;95425.06;5069200;28;20429;-77
2023/03/31 03:00:45;;;;;;;6.67;2.17;;;;;;;5.45;100.00;95423.97;5069017;28;20459;-77
2023/03/31 03:03:23;;;;;;;2.90;2.60;;;;;;;5.27;100.00;95383.97;5065600;28;20476;-76
2023/03/31 03:06:04;;;;;;;2.93;2.63;;;;;;;5.33;100.00;95395.03;5044393;28;20455;-77
2023/03/31 03:09:05;;;;;;;5.60;3.13;;;;;;;5.53;100.00;95411.91;5061018;28;20420;-77
2023/03/31 03:11:58;;;;;;;5.87;2.97;;;;;;;5.54;100.00;95410.84;5055279;28;20467;-76
2023/03/31 03:14:34;;;;;;;2.97;2.67;;;;;;;5.51;100.00;95403.59;5063645;28;20429;-77
2023/03/31 03:17:09;;;;;;;9.13;4.90;;;;;;;5.39;100.00;95382.53;5068767;28;20439;-77
2023/03/31 03:19:36;;;;;;;11.93;6.60;;;;;;;5.34;100.00;95380.84;5049603;28;20516;-77
2023/03/31 03:22:03;;;;;;;10.13;6.93;;;;;;;5.59;100.00;95411.41;5059499;28;20471;-77
2023/03/31 03:24:33;;;;;;;7.73;4.20;;;;;;;5.68;100.00;95397.50;5076362;28;20428;-76
2023/03/31 03:27:00;;;;;;;12.93;5.57;;;;;;;5.72;100.00;95411.50;5066429;28;20528;-77
2023/03/31 03:29:27;;;;;;;23.97;9.70;;;;;;;5.53;100.00;95396.97;5067698;28;20456;-77
2023/03/31 03:31:53;;;;;;;18.73;10.47;;;;;;;5.50;100.00;95381.88;5060820;28;20467;-78
2023/03/31 03:34:20;;;;;;;21.37;8.13;;;;;;;5.67;100.00;95407.22;5042115;28;20493;-77
2023/03/31 03:36:47;;;;;;;10.43;5.30;;;;;;;5.13;100.00;95298.81;5048889;28;20455;-77
2023/03/31 03:39:13;;;;;;;11.30;4.23;;;;;;;5.52;100.00;95379.69;5077355;28;20476;-77
2023/03/31 03:41:40;;;;;;;5.30;3.67;;;;;;;5.34;100.00;95336.28;5069938;28;20452;-76
2023/03/31 03:44:07;;;;;;;4.50;3.20;;;;;;;5.78;100.00;95391.91;5037264;28;20440;-76
2023/03/31 03:46:33;;;;;;;4.63;3.53;;;;;;;5.56;100.00;95361.47;5044787;28;20433;-77
2023/03/31 03:49:01;;;;;;;6.90;3.33;;;;;;;5.49;100.00;95346.25;5067965;28;20442;-76
2023/03/31 03:51:27;;;;;;;5.33;3.90;;;;;;;5.37;100.00;95319.19;5045206;28;20456;-76
2023/03/31 03:53:54;;;;;;;4.00;3.70;;;;;;;5.43;100.00;95329.16;5057658;28;20471;-77
2023/03/31 03:56:21;;;;;;;3.17;2.87;;;;;;;5.70;100.00;95354.13;5072480;28;20874;-76
2023/03/31 03:58:47;;;;;;;3.37;2.93;;;;;;;5.63;100.00;95346.03;5067689;28;20460;-76
2023/03/31 04:01:15;;;;;;;4.17;2.60;;;;;;;5.72;100.00;95357.22;5072451;28;20490;-77
2023/03/31 04:03:41;;;;;;;8.27;2.83;;;;;;;5.60;100.00;95325.66;5085882;28;20424;-77
2023/03/31 04:06:08;;;;;;;3.43;3.13;;;;;;;5.71;100.00;95326.06;5062134;28;21128;-76
2023/03/31 04:08:35;;;;;;;4.67;3.57;;;;;;;5.54;100.00;95308.59;5057609;28;20529;-77
2023/03/31 04:11:02;;;;;;;6.00;2.90;;;;;;;5.71;100.00;95323.44;5062504;28;20490;-77
2023/03/31 04:13:29;;;;;;;4.03;2.77;;;;;;;5.60;100.00;95313.31;5067334;28;20533;-76
2023/03/31 04:15:55;;;;;;;5.27;3.10;;;;;;;5.47;100.00;95298.59;5062338;28;20476;-76
2023/03/31 04:18:22;;;;;;;4.10;3.07;;;;;;;5.51;100.00;95298.75;5057322;28;20431;-76
2023/03/31 04:21:04;;;;;;;4.90;2.80;;;;;;;5.38;100.00;95290.03;5071914;28;20543;-77
2023/03/31 04:23:33;;;;;;;3.23;3.00;;;;;;;5.40;100.00;95282.63;5065296;28;20435;-77
2023/03/31 04:26:01;;;;;;;4.60;2.90;;;;;;;5.42;100.00;95280.44;5071636;28;20425;-76
2023/03/31 04:28:33;;;;;;;3.60;2.63;;;;;;;5.56;100.00;95299.31;5071642;28;20903;-76
2023/03/31 04:31:08;;;;;;;5.03;2.60;;;;;;;5.59;100.00;95292.66;5071480;28;20440;-77
2023/03/31 04:33:38;;;;;;;5.63;3.43;;;;;;;5.45;100.00;95264.09;5059605;28;20455;-77
2023/03/31 04:36:16;;;;;;;4.10;3.70;;;;;;;5.53;100.00;95279.00;5056687;28;20440;-76
2023/03/31 04:38:49;;;;;;;9.17;3.40;;;;;;;5.68;100.00;95277.66;5051239;28;20457;-77
2023/03/31 04:41:16;;;;;;;3.80;3.20;;;;;;;5.62;100.00;95274.47;5075895;28;20979;-77
2023/03/31 04:43:44;;;;;;;5.87;3.37;;;;;;;5.59;100.00;95267.22;5057763;28;20467;-77
2023/03/31 04:46:11;;;;;;;4.40;3.67;;;;;;;5.30;100.00;95212.25;5066121;28;20493;-77
2023/03/31 04:48:38;;;;;;;8.67;3.63;;;;;;;5.22;100.00;95208.63;5071503;28;20955;-76
2023/03/31 04:51:05;;;;;;;4.43;4.03;;;;;;;5.36;100.00;95225.94;5077231;28;21050;-77
2023/03/31 04:53:32;;;;;;;4.30;3.73;;;;;;;5.62;100.00;95242.25;5057004;28;20492;-76
2023/03/31 04:55:59;;;;;;;3.63;3.33;;;;;;;5.52;100.00;95204.06;5076787;28;20445;-76
2023/03/31 04:58:26;;;;;;;5.57;3.30;;;;;;;5.61;100.00;95230.22;5039473;28;20476;-77
2023/03/31 05:00:52;;;;;;;4.40;3.03;;;;;;;5.72;100.00;95239.19;5040288;28;20509;-77
2023/03/31 05:03:20;;;;;;;6.10;4.40;;;;;;;5.82;100.00;95223.09;5071592;28;20416;-77
2023/03/31 05:05:47;;;;;;;7.50;3.50;;;;;;;5.92;100.00;95248.94;5066748;28;20451;-77
2023/03/31 05:08:14;;;;;;;3.20;2.90;;;;;;;6.16;100.00;95250.13;5043759;28;20451;-77
2023/03/31 05:10:40;;;;;;;4.47;2.90;;;;;;;6.20;100.00;95256.25;5046668;28;20506;-77
2023/03/31 05:13:10;;;;;;;3.63;2.47;;;;;;;6.15;100.00;95251.22;5047199;28;20459;-77
2023/03/31 05:15:38;;;;;;;8.00;3.00;;;;;;;5.94;100.00;95217.13;5071953;28;21057;-76
2023/03/31 05:18:06;;;;;;;5.00;2.80;;;;;;;6.22;100.00;95228.59;5086201;28;20446;-76
2023/03/31 05:20:33;;;;;;;4.10;2.50;;;;;;;6.12;100.00;95221.13;5062174;28;20961;-77
2023/03/31 05:23:00;;;;;;;7.07;3.47;;;;;;;6.19;100.00;95224.00;5048183;28;20432;-77
2023/03/31 05:25:31;;;;;;;3.43;3.10;;;;;;;6.04;100.00;95195.00;5059498;28;20447;-76
2023/03/31 05:27:59;;;;;;;7.10;3.10;;;;;;;6.18;100.00;95217.22;5039989;28;20572;-77
2023/03/31 05:30:27;;;;;;;4.90;3.13;;;;;;;6.41;100.00;95230.72;5036634;28;20468;-77
2023/03/31 05:32:53;;;;;;;4.37;2.70;;;;;;;6.41;100.00;95230.72;5071061;28;20477;-77
2023/03/31 05:35:20;;;;;;;7.50;3.50;;;;;;;6.18;100.00;95190.22;5071225;28;20432;-77
2023/03/31 05:37:47;;;;;;;7.27;4.60;;;;;;;6.47;100.00;95223.38;5066896;28;20466;-77
2023/03/31 05:40:14;;;;;;;5.17;3.33;;;;;;;6.37;100.00;95190.44;5060467;28;20565;-77
2023/03/31 05:42:41;;;;;;;5.33;3.40;;;;;;;6.36;100.00;95183.66;5056047;28;20440;-78
2023/03/31 05:45:08;;;;;;;5.80;2.83;;;;;;;6.38;100.00;95180.69;5052558;28;20453;-78
2023/03/31 05:47:35;;;;;;;5.80;3.60;;;;;;;6.44;100.00;95182.81;5056745;28;20440;-77
2023/03/31 05:50:06;;;;;;;4.87;3.63;;;;;;;6.68;100.00;95197.03;5058178;28;20440;-77
2023/03/31 05:52:34;;;;;;;4.60;3.03;;;;;;;6.68;100.00;95189.94;5058619;28;20467;-77
2023/03/31 05:55:01;;;;;;;10.43;3.20;;;;;;;6.19;100.00;95107.75;5048969;28;20432;-77
2023/03/31 05:57:28;;;;;;;5.80;3.90;;;;;;;6.50;100.00;95152.59;5042480;28;20443;-78
2023/03/31 05:59:54;;;;;;;3.33;2.90;;;;;;;6.42;100.00;95140.38;5087854;28;20444;-77
2023/03/31 06:02:21;;;;;;;3.67;2.80;;;;;;;6.31;100.00;95115.63;5068903;28;20549;-77
2023/03/31 06:04:49;;;;;;;4.13;2.97;;;;;;;6.30;100.00;95119.38;5066178;28;20925;-75
2023/03/31 06:07:16;;;;;;;3.90;3.20;;;;;;;6.70;100.00;95173.84;5047768;28;21020;-76
2023/03/31 06:09:44;;;;;;;8.67;4.53;;;;;;;6.52;100.00;95141.75;5059566;28;20416;-76
2023/03/31 06:12:11;;;;;;;8.87;3.30;;;;;;;6.54;100.00;95134.31;5059698;28;21080;-75
2023/03/31 06:14:37;;;;;;;4.50;3.10;;;;;;;6.22;100.00;95070.38;5046527;28;20535;-75
2023/03/31 06:17:04;;;;;;;6.27;3.10;;;;;;;6.63;100.00;95111.34;5060244;28;20761;-76
2023/03/31 06:19:31;;;;;;;4.00;3.57;;;;;;;6.82;100.00;95152.81;5043082;28;20429;-76
2023/03/31 06:21:58;;;;;;;5.57;3.30;;;;;;;6.58;100.00;95124.72;5069232;28;20484;-76
2023/03/31 06:24:24;;;;;;;4.83;3.30;;;;;;;6.59;100.00;95130.72;5059651;28;20872;-76
2023/03/31 06:26:51;;;;;;;4.53;3.37;;;;;;;6.49;100.00;95122.19;5068350;28;20980;-76
2023/03/31 06:29:19;;;;;;;5.97;3.20;;;;;;;6.53;100.00;95111.78;5074328;28;20574;-76
2023/03/31 06:31:46;;;;;;;13.03;8.37;;;;;;;6.67;100.00;95132.44;5061021;28;20521;-76
2023/03/31 06:34:13;;;;;;;37.50;31.73;;;;;;;6.63;100.00;95119.22;5043004;28;20467;-75
2023/03/31 06:36:40;;;;;;;21.90;15.10;;;;;;;6.50;100.00;95094.06;5064463;28;20437;-75
2023/03/31 06:39:07;;;;;;;38.80;29.27;;;;;;;6.55;100.00;95093.88;5055842;28;21005;-76
2023/03/31 06:41:34;;;;;;;9.77;6.20;;;;;;;6.48;100.00;95086.53;5064383;28;20485;-77
2023/03/31 06:44:00;;;;;;;5.23;4.00;;;;;;;6.72;100.00;95114.63;5062965;28;20428;-76
2023/03/31 06:46:27;;;;;;;8.00;3.50;;;;;;;6.75;100.00;95119.22;5044763;28;20565;-76
2023/03/31 06:48:54;;;;;;;6.70;3.50;;;;;;;6.34;100.00;95059.84;5073907;28;20474;-77
2023/03/31 06:51:21;;;;;;;3.90;2.70;;;;;;;6.68;100.00;95099.88;5067290;28;20444;-77
2023/03/31 06:53:47;;;;;;;3.47;2.60;;;;;;;6.81;100.00;95110.03;5075285;28;20448;-76
2023/03/31 06:56:14;;;;;;;5.77;3.37;;;;;;;6.83;100.00;95120.19;5061815;28;20420;-76
2023/03/31 06:58:41;;;;;;;7.83;3.80;;;;;;;6.73;100.00;95100.41;5059141;28;20437;-76
2023/03/31 07:01:07;;;;;;;6.83;3.97;;;;;;;6.91;100.00;95127.16;5066307;28;20451;-76
2023/03/31 07:03:35;;;;;;;4.87;3.47;;;;;;;6.71;100.00;95104.44;5055659;28;20973;-76
2023/03/31 07:06:01;;;;;;;6.03;3.60;;;;;;;6.68;100.00;95092.75;5056610;28;20437;-76
2023/03/31 07:08:28;;;;;;;3.97;3.23;;;;;;;6.71;100.00;95097.34;5064904;28;20731;-76
2023/03/31 07:10:59;;;;;;;7.50;3.60;;;;;;;6.47;100.00;95098.13;5046249;28;20460;-76
2023/03/31 07:13:27;;;;;;;7.53;4.43;;;;;;;6.53;100.00;95112.56;5042127;28;20513;-76
2023/03/31 07:15:55;;;;;;;8.93;5.80;;;;;;;6.87;100.00;95130.78;5064884;28;20523;-76
2023/03/31 07:18:24;;;;;;;6.20;4.73;;;;;;;6.60;100.00;95098.13;5048839;28;20425;-76
2023/03/31 07:20:51;;;;;;;7.73;4.40;;;;;;;6.73;100.00;95128.53;5030617;28;20456;-76
2023/03/31 07:23:19;;;;;;;14.63;4.57;;;;;;;6.53;100.00;95107.31;5058704;28;20961;-76
2023/03/31 07:25:46;;;;;;;7.63;3.70;;;;;;;6.67;100.00;95101.69;5035410;28;20495;-76
2023/03/31 07:28:14;;;;;;;6.27;3.57;;;;;;;6.54;100.00;95081.81;5072214;28;20428;-76
2023/03/31 07:30:41;;;;;;;4.23;3.33;;;;;;;6.83;100.00;95125.44;5055299;28;20506;-76
2023/03/31 07:33:08;;;;;;;3.63;3.00;;;;;;;6.80;100.00;95105.06;5045786;28;20565;-76
2023/03/31 07:35:40;;;;;;;4.63;3.97;;;;;;;6.72;100.00;95105.97;5048050;28;20468;-76
2023/03/31 07:38:11;;;;;;;5.80;2.90;;;;;;;6.89;100.00;95125.97;5045644;28;20412;-76
2023/03/31 07:40:39;;;;;;;4.40;3.53;;;;;;;6.61;100.00;95076.00;5058080;28;20452;-76
2023/03/31 07:43:06;;;;;;;6.67;4.50;;;;;;;6.80;100.00;95120.84;5047193;28;20439;-76
2023/03/31 07:45:33;;;;;;;8.20;6.10;;;;;;;6.68;100.00;95095.38;5068768;28;20511;-76
2023/03/31 07:48:00;;;;;;;6.97;5.60;;;;;;;6.71;100.00;95091.31;5066912;28;20435;-76
2023/03/31 07:50:27;;;;;;;5.40;4.60;;;;;;;6.84;100.00;95098.09;5066336;28;20809;-76
2023/03/31 07:52:55;;;;;;;7.33;5.20;;;;;;;6.96;100.00;95113.06;5034657;28;21222;-76
2023/03/31 07:55:22;;;;;;;9.93;4.77;;;;;;;6.86;100.00;95110.88;5069822;28;20451;-76
2023/03/31 07:57:50;;;;;;;8.40;4.67;;;;;;;6.80;100.00;95089.31;5049714;28;20875;-76
2023/03/31 08:00:17;;;;;;;6.70;4.80;;;;;;;6.82;100.00;95069.53;5072458;28;20983;-76
2023/03/31 08:02:44;;;;;;;4.13;3.63;;;;;;;7.09;100.00;95090.91;5043556;28;20460;-76
2023/03/31 08:05:13;;;;;;;5.20;3.80;;;;;;;7.25;100.00;95099.59;5072411;28;20424;-76
2023/03/31 08:07:42;;;;;;;6.80;3.67;;;;;;;7.30;100.00;95085.44;5061785;28;20469;-76
2023/03/31 08:10:13;;;;;;;6.40;3.70;;;;;;;7.35;100.00;95077.31;5047451;28;20539;-76
2023/03/31 08:12:39;;;;;;;8.10;4.47;;;;;;;7.17;100.00;95039.28;5072282;28;20436;-76
2023/03/31 08:15:07;;;;;;;5.43;3.70;;;;;;;7.37;100.00;95064.59;5023944;28;20935;-76
2023/03/31 08:17:34;;;;;;;6.03;4.00;;;;;;;7.44;100.00;95051.63;5058287;28;21013;-76
2023/03/31 08:20:01;;;;;;;6.77;3.67;;;;;;;7.20;100.00;95020.97;5064569;28;20421;-76
2023/03/31 08:22:33;;;;;;;5.13;3.90;;;;;;;7.28;100.00;95012.19;5048277;28;20463;-77
2023/03/31 08:25:00;;;;;;;7.73;4.33;;;;;;;7.34;100.00;95018.69;5057203;28;20434;-77
2023/03/31 08:27:26;;;;;;;4.40;3.90;;;;;;;7.62;100.00;95049.47;5041745;28;20437;-76
2023/03/31 08:29:53;;;;;;;5.97;4.97;;;;;;;7.50;100.00;95026.63;5066866;28;20438;-76
2023/03/31 08:32:23;;;;;;;8.63;5.87;;;;;;;7.29;100.00;94989.28;5063553;28;20841;-76
2023/03/31 08:34:50;;;;;;;6.50;4.63;;;;;;;7.81;100.00;95040.91;5044001;28;21072;-76
2023/03/31 08:37:17;;;;;;;7.07;4.60;;;;;;;7.80;100.00;95028.84;5060628;28;20444;-76
2023/03/31 08:39:44;;;;;;;13.20;4.67;;;;;;;7.63;100.00;95032.59;5063764;28;20515;-77
2023/03/31 08:42:21;;;;;;;8.50;4.30;;;;;;;7.69;100.00;95031.97;5058441;28;20898;-76
2023/03/31 08:45:20;;;;;;;8.03;4.20;;;;;;;7.48;100.00;94999.91;5059282;28;20455;-76
2023/03/31 08:47:52;;;;;;;6.10;3.50;;;;;;;7.37;100.00;94991.00;5037173;28;20470;-76
2023/03/31 08:50:24;;;;;;;9.23;5.13;;;;;;;7.53;100.00;95018.06;5059910;28;20470;-76
2023/03/31 08:53:05;;;;;;;6.70;4.03;;;;;;;7.61;100.00;95021.63;5050482;28;20528;-76
2023/03/31 08:55:55;;;;;;;6.43;5.00;;;;;;;7.61;100.00;95014.50;5054281;28;20473;-76
2023/03/31 08:58:48;;;;;;;4.97;4.20;;;;;;;7.54;100.00;95011.69;5060050;28;20474;-76
2023/03/31 09:01:48;;;;;;;7.90;5.20;;;;;;;7.50;100.00;95005.59;5061341;28;20494;-76
2023/03/31 09:04:31;;;;;;;11.07;4.97;;;;;;;7.57;100.00;95015.50;5040230;28;20437;-76
2023/03/31 09:07:01;;;;;;;12.13;6.43;;;;;;;7.63;100.00;94998.38;5064482;28;20470;-76
2023/03/31 09:09:55;;;;;;;6.83;5.50;;;;;;;7.60;100.00;95007.69;5037466;28;20876;-76
2023/03/31 09:12:33;;;;;;;10.80;6.07;;;;;;;7.42;100.00;94974.97;5059067;28;20911;-76
2023/03/31 09:15:04;;;;;;;7.33;5.53;;;;;;;7.57;100.00;94991.84;5056708;28;20551;-75
2023/03/31 09:17:39;;;;;;;7.67;5.50;;;;;;;7.64;100.00;94982.25;5046081;28;20436;-75
2023/03/31 09:20:15;;;;;;;7.07;5.60;;;;;;;7.64;100.00;94968.34;5046992;28;20428;-75
2023/03/31 09:22:47;;;;;;;6.83;5.20;;;;;;;7.50;100.00;94937.22;5068811;28;20505;-76
2023/03/31 09:25:20;;;;;;;9.07;5.33;;;;;;;7.34;100.00;94908.28;5041432;28;20922;-76
2023/03/31 09:27:49;;;;;;;8.03;5.87;;;;;;;7.37;100.00;94865.56;5071563;28;20451;-76
2023/03/31 09:30:21;;;;;;;6.90;6.20;;;;;;;7.28;100.00;94809.78;5047690;28;20432;-75
2023/03/31 09:32:53;;;;;;;8.43;5.60;;;;;;;7.45;100.00;94877.00;5066816;28;20425;-76
2023/03/31 09:35:24;;;;;;;7.20;5.60;;;;;;;7.70;100.00;94925.66;5044711;28;20431;-75
2023/03/31 09:37:52;;;;;;;5.20;4.80;;;;;;;7.70;100.00;94872.28;5055018;28;20618;-76
2023/03/31 09:40:25;;;;;;;6.13;4.80;;;;;;;7.83;100.00;94871.06;5045538;28;20522;-76
2023/03/31 09:43:04;;;;;;;5.63;4.67;;;;;;;7.86;100.00;94896.69;5062364;28;20931;-76
2023/03/31 09:45:35;;;;;;;5.93;5.43;;;;;;;8.06;100.00;94904.63;5062277;28;20470;-76
2023/03/31 09:48:15;;;;;;;13.07;5.80;;;;;;;8.14;100.00;94909.66;5057108;28;20799;-76
2023/03/31 09:50:51;;;;;;;24.03;17.60;;;;;;;8.20;100.00;94891.75;5075032;28;20540;-76
2023/03/31 09:53:30;;;;;;;7.13;4.53;;;;;;;8.09;100.00;94899.44;5065715;28;20885;-76
2023/03/31 09:56:02;;;;;;;20.83;15.80;;;;;;;8.18;100.00;94897.38;5077093;28;20430;-76
2023/03/31 09:58:29;;;;;;;42.47;31.87;;;;;;;7.86;100.00;94856.44;5076980;28;20454;-76
2023/03/31 10:01:02;;;;;;;6.87;4.20;;;;;;;8.02;100.00;94898.53;5077025;28;20831;-77
2023/03/31 10:03:35;;;;;;;5.67;5.17;;;;;;;7.94;100.00;94881.81;5074839;28;20793;-77
2023/03/31 10:06:10;;;;;;;6.77;6.07;;;;;;;7.93;100.00;94875.78;5084418;28;20450;-77
2023/03/31 10:08:50;;;;;;;10.97;9.87;;;;;;;7.37;100.00;94789.31;5074923;28;20420;-76
2023/03/31 10:11:17;;;;;;;8.70;6.10;;;;;;;7.96;100.00;94869.06;5056736;28;20545;-77
2023/03/31 10:13:59;;;;;;;4.20;3.80;;;;;;;8.24;100.00;94906.50;5063784;28;20911;-77
2023/03/31 10:16:41;;;;;;;9.90;4.20;;;;;;;8.08;100.00;94878.72;5051216;28;21015;-77
2023/03/31 10:19:22;;;;;;;4.47;3.17;;;;;;;8.33;100.00;94910.81;5065965;28;20440;-77
2023/03/31 10:22:13;;;;;;;5.03;3.90;;;;;;;8.30;100.00;94891.22;5063878;28;20461;-77
2023/03/31 10:24:45;;;;;;;5.00;3.73;;;;;;;8.48;100.00;94910.75;5053317;28;20428;-77
2023/03/31 10:27:17;;;;;;;4.20;3.73;;;;;;;8.54;100.00;94901.47;5055453;28;20461;-77
2023/03/31 10:29:46;;;;;;;4.60;4.20;;;;;;;8.61;100.00;94914.03;5056605;28;20451;-77
2023/03/31 10:32:32;;;;;;;6.10;3.90;;;;;;;8.60;100.00;94891.44;5056909;28;20440;-77
2023/03/31 10:35:06;;;;;;;4.77;4.30;;;;;;;8.37;100.00;94856.38;5061294;28;20581;-77
2023/03/31 10:37:35;;;;;;;4.37;4.03;;;;;;;8.15;100.00;94813.06;5044275;28;20468;-77
2023/03/31 10:40:24;;;;;;;7.93;4.20;;;;;;;8.54;100.00;94874.38;5036747;28;20776;-77
2023/03/31 10:43:12;;;;;;;4.90;4.13;;;;;;;8.51;100.00;94869.78;5046912;28;20499;-77
2023/03/31 10:45:46;;;;;;;6.10;3.90;;;;;;;8.41;100.00;94857.94;5069785;28;20465;-77
2023/03/31 10:48:27;;;;;;;3.93;3.60;;;;;;;8.52;100.00;94863.41;5049862;28;20837;-77
2023/03/31 10:50:58;;;;;;;5.97;4.17;;;;;;;8.59;100.00;94863.56;5047902;28;20492;-76
2023/03/31 10:53:25;;;;;;;6.07;3.90;;;;;;;8.68;100.00;94835.13;5048416;28;20424;-76
2023/03/31 10:55:57;;;;;;;5.17;3.73;;;;;;;8.99;100.00;94833.38;5052881;28;20464;-76
2023/03/31 10:58:40;;;;;;;5.30;3.83;;;;;;;9.39;100.00;94846.81;5049745;28;20428;-77
2023/03/31 11:01:20;;;;;;;5.20;4.70;;;;;;;9.50;100.00;94857.53;5073836;28;20499;-76
2023/03/31 11:04:08;;;;;;;6.83;4.13;;;;;;;9.83;100.00;94856.84;5059031;28;20436;-76
2023/03/31 11:06:48;;;;;;;4.10;3.80;;;;;;;9.78;100.00;94851.88;5061429;28;20444;-76
2023/03/31 11:09:51;;;;;;;4.40;4.10;;;;;;;9.54;100.00;94791.59;5066491;28;20432;-76
2023/03/31 11:12:31;;;;;;;6.23;5.63;;;;;;;9.62;100.00;94801.91;5061271;28;20888;-76
2023/03/31 11:15:19;;;;;;;8.33;4.47;;;;;;;10.11;100.00;94839.84;5042554;28;20483;-76
2023/03/31 11:18:15;;;;;;;4.00;3.70;;;;;;;10.52;100.00;94838.06;5049776;28;20858;-76
2023/03/31 11:21:15;;;;;;;5.43;3.40;;;;;;;10.92;100.00;94839.94;5063737;28;20531;-76
2023/03/31 11:23:52;;;;;;;13.80;11.57;;;;;;;11.31;100.00;94840.28;5047459;28;20452;-76
2023/03/31 11:26:49;;;;;;;8.60;5.17;;;;;;;11.80;100.00;94847.06;5065288;28;20519;-76
2023/03/31 11:29:35;;;;;;;4.10;2.90;;;;;;;11.74;100.00;94857.19;5061066;28;20489;-76
2023/03/31 11:32:01;;;;;;;3.77;2.93;;;;;;;11.36;100.00;94839.94;5073084;28;20880;-77
2023/03/31 11:35:14;;;;;;;4.33;2.83;;;;;;;11.04;100.00;94796.59;5058235;28;20551;-77
2023/03/31 11:38:02;;;;;;;7.03;4.17;;;;;;;11.17;100.00;94803.13;5058508;28;20842;-77
2023/03/31 11:40:48;;;;;;;2.73;2.10;;;;;;;11.99;100.00;94819.53;5061825;28;20451;-77
2023/03/31 11:43:41;;;;;;;4.23;2.50;;;;;;;11.76;100.00;94830.38;5061115;28;20527;-76
2023/03/31 11:46:18;;;;;;;3.40;2.70;;;;;;;11.42;100.00;94796.13;5072919;28;20571;-76
2023/03/31 11:48:48;;;;;;;4.53;3.90;;;;;;;11.07;100.00;94831.00;5060300;28;20423;-77
2023/03/31 11:51:25;;;;;;;2.87;1.70;;;;;;;9.10;100.00;94853.53;5046017;28;20515;-75
2023/03/31 11:53:54;;;;;;;2.03;1.60;;;;;;;8.47;100.00;94869.75;5048704;28;20486;-76
2023/03/31 11:56:25;;;;;;;4.10;1.70;;;;;;;6.99;100.00;94839.13;5072680;28;20868;-76